createdAt,value
2022-10-25T00:01:23.617Z,65.43
2022-10-25T00:03:50.365Z,65.49
2022-10-25T00:06:17.171Z,65.77
2022-10-25T00:08:44.231Z,65.22
2022-10-25T00:11:18.012Z,65.18
2022-10-25T00:13:44.680Z,65.43
2022-10-25T00:16:17.035Z,66.07
2022-10-25T00:18:43.667Z,65.83
2022-10-25T00:21:10.535Z,65.99
2022-10-25T00:23:37.133Z,65.65
2022-10-25T00:26:08.816Z,66.23
2022-10-25T00:28:35.769Z,66.03
2022-10-25T00:31:04.450Z,65.95
2022-10-25T00:33:32.448Z,66.50
2022-10-25T00:36:28.724Z,66.22
2022-10-25T00:38:58.188Z,66.70
2022-10-25T00:41:28.366Z,66.58
2022-10-25T00:44:16.329Z,66.89
2022-10-25T00:46:44.730Z,66.81
2022-10-25T00:49:17.472Z,66.81
2022-10-25T00:51:49.843Z,67.26
2022-10-25T00:54:26.542Z,67.43
2022-10-25T00:56:54.674Z,67.49
2022-10-25T00:59:25.582Z,67.28
2022-10-25T01:01:56.041Z,67.52
2022-10-25T01:04:27.584Z,67.75
2022-10-25T01:06:54.611Z,67.58
2022-10-25T01:09:28.694Z,67.48
2022-10-25T01:11:56.588Z,67.53
2022-10-25T01:14:23.700Z,67.51
2022-10-25T01:16:59.464Z,67.64
2022-10-25T01:19:52.290Z,67.30
2022-10-25T01:22:54.019Z,67.48
2022-10-25T01:25:38.761Z,67.35
2022-10-25T01:28:12.659Z,67.32
2022-10-25T01:31:12.080Z,67.89
2022-10-25T01:34:07.141Z,67.48
2022-10-25T01:36:41.588Z,67.75
2022-10-25T01:39:30.552Z,68.00
2022-10-25T01:42:24.234Z,67.84
2022-10-25T01:44:56.753Z,68.01
2022-10-25T01:47:36.577Z,67.97
2022-10-25T01:50:08.841Z,68.12
2022-10-25T01:52:35.440Z,68.22
2022-10-25T01:55:02.837Z,67.84
2022-10-25T01:57:32.157Z,67.63
2022-10-25T02:00:12.254Z,67.92
2022-10-25T02:03:15.805Z,68.12
2022-10-25T02:05:42.298Z,68.14
2022-10-25T02:08:34.728Z,68.28
2022-10-25T02:11:01.232Z,68.28
2022-10-25T02:13:31.442Z,68.27
2022-10-25T02:16:07.927Z,68.35
2022-10-25T02:18:38.756Z,68.21
2022-10-25T02:21:06.397Z,68.21
2022-10-25T02:23:37.773Z,68.44
2022-10-25T02:26:07.501Z,68.75
2022-10-25T02:28:36.394Z,69.04
2022-10-25T02:31:04.020Z,69.06
2022-10-25T02:33:30.619Z,69.29
2022-10-25T02:36:06.437Z,68.76
2022-10-25T02:38:34.281Z,69.14
2022-10-25T02:41:03.425Z,68.83
2022-10-25T02:47:42.247Z,68.74
2022-10-25T02:50:09.192Z,68.79
2022-10-25T02:52:35.830Z,68.89
2022-10-25T02:55:02.524Z,68.72
2022-10-25T02:57:33.947Z,68.33
2022-10-25T03:00:00.694Z,68.25
2022-10-25T03:02:27.942Z,68.28
2022-10-25T03:04:54.511Z,68.48
2022-10-25T03:07:21.136Z,68.25
2022-10-25T03:09:47.669Z,68.46
2022-10-25T03:12:14.214Z,68.44
2022-10-25T03:14:40.725Z,68.15
2022-10-25T03:17:08.134Z,68.44
2022-10-25T03:19:34.754Z,68.79
2022-10-25T03:22:01.338Z,68.66
2022-10-25T03:24:27.937Z,68.63
2022-10-25T03:26:54.537Z,68.64
2022-10-25T03:29:21.109Z,68.45
2022-10-25T03:31:47.673Z,68.92
2022-10-25T03:34:14.214Z,68.97
2022-10-25T03:36:40.726Z,69.20
2022-10-25T03:39:07.304Z,68.94
2022-10-25T03:41:33.903Z,69.21
2022-10-25T03:44:00.503Z,69.06
2022-10-25T03:46:27.106Z,68.94
2022-10-25T03:48:53.702Z,69.27
2022-10-25T03:51:20.289Z,69.30
2022-10-25T03:53:46.984Z,69.88
2022-10-25T03:56:13.511Z,69.57
2022-10-25T03:58:40.061Z,69.51
2022-10-25T04:01:09.446Z,70.17
2022-10-25T04:03:36.205Z,70.03
2022-10-25T04:06:02.811Z,69.82
2022-10-25T04:08:29.413Z,69.61
2022-10-25T04:10:56.042Z,69.44
2022-10-25T04:13:22.573Z,69.12
2022-10-25T04:15:49.128Z,69.08
2022-10-25T04:18:15.764Z,69.33
2022-10-25T04:20:42.336Z,69.73
2022-10-25T04:23:08.936Z,69.91
2022-10-25T04:25:35.854Z,70.39
2022-10-25T04:28:02.570Z,70.45
2022-10-25T04:30:29.179Z,70.61
2022-10-25T04:32:57.175Z,70.16
2022-10-25T04:35:24.007Z,70.46
2022-10-25T04:37:51.950Z,70.13
2022-10-25T04:40:22.602Z,70.04
2022-10-25T04:42:51.435Z,69.90
2022-10-25T04:45:18.216Z,69.94
2022-10-25T04:47:44.814Z,69.67
2022-10-25T04:50:11.451Z,70.21
2022-10-25T04:52:38.028Z,70.57
2022-10-25T04:55:05.001Z,70.44
2022-10-25T04:57:31.571Z,70.41
2022-10-25T04:59:58.308Z,70.72
2022-10-25T05:02:25.002Z,70.20
2022-10-25T05:04:51.607Z,70.65
2022-10-25T05:07:19.692Z,70.40
2022-10-25T05:09:47.495Z,70.99
2022-10-25T05:12:14.938Z,70.82
2022-10-25T05:14:41.528Z,70.48
2022-10-25T05:17:08.093Z,70.69
2022-10-25T05:19:34.716Z,71.19
2022-10-25T05:22:01.392Z,71.21
2022-10-25T05:24:28.107Z,71.02
2022-10-25T05:26:54.667Z,70.60
2022-10-25T05:29:21.250Z,70.18
2022-10-25T05:31:47.805Z,70.63
2022-10-25T05:34:14.462Z,70.45
2022-10-25T05:36:41.117Z,70.39
2022-10-25T05:39:07.711Z,69.53
2022-10-25T05:41:36.232Z,69.21
2022-10-25T05:44:04.489Z,69.03
2022-10-25T05:46:31.397Z,69.34
2022-10-25T05:48:59.466Z,68.95
2022-10-25T05:51:32.836Z,68.16
2022-10-25T05:54:02.978Z,68.24
2022-10-25T05:56:31.169Z,68.24
2022-10-25T05:58:57.942Z,68.45
2022-10-25T06:01:26.603Z,67.87
2022-10-25T06:03:55.477Z,67.65
2022-10-25T06:06:23.071Z,68.11
2022-10-25T06:08:50.379Z,68.24
2022-10-25T06:11:18.914Z,68.54
2022-10-25T06:13:45.790Z,68.19
2022-10-25T06:16:14.708Z,68.77
2022-10-25T06:18:41.704Z,68.87
2022-10-25T06:21:14.135Z,69.07
2022-10-25T06:23:41.894Z,69.04
2022-10-25T06:26:14.167Z,68.74
2022-10-25T06:28:41.625Z,68.63
2022-10-25T06:31:12.667Z,68.57
2022-10-25T06:33:40.098Z,69.00
2022-10-25T06:36:10.505Z,68.46
2022-10-25T06:38:37.037Z,68.33
2022-10-25T06:41:06.046Z,69.05
2022-10-25T06:43:34.847Z,69.21
2022-10-25T06:46:19.629Z,69.16
2022-10-25T06:48:46.179Z,69.77
2022-10-25T06:51:12.910Z,69.79
2022-10-25T06:53:39.714Z,69.59
2022-10-25T06:56:14.407Z,69.02
2022-10-25T06:58:42.151Z,68.02
2022-10-25T07:01:12.233Z,67.83
2022-10-25T07:03:39.125Z,67.75
2022-10-25T07:06:11.238Z,67.73
2022-10-25T07:08:40.212Z,67.63
2022-10-25T07:11:07.832Z,67.32
2022-10-25T07:13:34.731Z,67.12
2022-10-25T07:16:03.313Z,67.34
2022-10-25T07:18:30.979Z,67.24
2022-10-25T07:21:02.637Z,67.48
2022-10-25T07:23:30.448Z,67.05
2022-10-25T07:25:58.246Z,67.42
2022-10-25T07:28:25.298Z,67.26
2022-10-25T07:30:51.945Z,66.80
2022-10-25T07:33:20.287Z,66.24
2022-10-25T07:36:09.623Z,66.26
2022-10-25T07:38:37.745Z,66.46
2022-10-25T07:41:04.834Z,66.39
2022-10-25T07:43:31.564Z,66.77
2022-10-25T07:45:58.563Z,66.90
2022-10-25T07:48:25.252Z,66.75
2022-10-25T07:50:52.092Z,67.08
2022-10-25T07:53:19.035Z,66.81
2022-10-25T07:55:52.914Z,66.71
2022-10-25T07:58:19.705Z,66.18
2022-10-25T08:00:47.037Z,64.93
2022-10-25T08:03:15.474Z,64.68
2022-10-25T08:05:47.258Z,63.38
2022-10-25T08:08:14.691Z,63.09
2022-10-25T08:10:43.410Z,63.23
2022-10-25T08:13:10.567Z,63.24
2022-10-25T08:15:37.250Z,62.42
2022-10-25T08:18:04.628Z,61.81
2022-10-25T08:20:49.643Z,61.78
2022-10-25T08:23:18.035Z,61.55
2022-10-25T08:25:45.484Z,61.16
2022-10-25T08:28:12.109Z,61.14
2022-10-25T08:30:40.955Z,60.32
2022-10-25T08:33:11.350Z,60.05
2022-10-25T08:35:39.130Z,60.08
2022-10-25T08:38:05.863Z,59.67
2022-10-25T08:40:40.742Z,58.98
2022-10-25T08:43:17.069Z,57.97
2022-10-25T08:46:00.248Z,58.71
2022-10-25T08:48:32.647Z,58.36
2022-10-25T08:51:12.138Z,58.10
2022-10-25T08:53:43.755Z,57.41
2022-10-25T08:56:17.575Z,56.60
2022-10-25T08:59:05.069Z,55.43
2022-10-25T09:01:40.691Z,55.33
2022-10-25T09:04:10.855Z,55.06
2022-10-25T09:06:48.450Z,55.12
2022-10-25T09:09:43.242Z,54.62
2022-10-25T09:12:23.849Z,54.39
2022-10-25T09:15:08.568Z,53.91
2022-10-25T09:17:50.178Z,54.24
2022-10-25T09:20:21.824Z,54.77
2022-10-25T09:23:00.659Z,54.61
2022-10-25T09:25:42.002Z,55.14
2022-10-25T09:28:17.139Z,55.15
2022-10-25T09:30:44.620Z,54.80
2022-10-25T09:33:14.024Z,55.31
2022-10-25T09:35:45.384Z,54.48
2022-10-25T09:38:20.685Z,54.29
2022-10-25T09:40:56.778Z,54.71
2022-10-25T09:43:32.479Z,54.05
2022-10-25T09:46:04.829Z,54.50
2022-10-25T09:48:46.636Z,53.89
2022-10-25T09:51:29.728Z,53.42
2022-10-25T09:53:57.761Z,53.12
2022-10-25T09:56:24.349Z,52.55
2022-10-25T09:58:51.104Z,51.40
2022-10-25T10:01:24.747Z,50.49
2022-10-25T10:03:54.874Z,44.83
2022-10-25T10:06:32.193Z,39.04
2022-10-25T10:09:05.878Z,33.75
2022-10-25T10:11:33.825Z,33.47
2022-10-25T10:14:09.888Z,32.93
2022-10-25T10:16:43.737Z,35.46
2022-10-25T10:19:19.449Z,38.75
2022-10-25T10:21:49.204Z,41.07
2022-10-25T10:24:42.033Z,42.98
2022-10-25T10:27:21.086Z,44.73
2022-10-25T10:30:01.867Z,45.04
2022-10-25T10:32:36.880Z,45.03
2022-10-25T10:35:06.498Z,44.56
2022-10-25T10:37:34.405Z,45.00
2022-10-25T10:40:02.367Z,45.48
2022-10-25T10:42:35.457Z,46.23
2022-10-25T10:45:04.180Z,46.46
2022-10-25T10:47:35.386Z,47.39
2022-10-25T10:50:22.096Z,46.49
2022-10-25T10:53:02.077Z,44.78
2022-10-25T10:55:32.468Z,44.26
2022-10-25T10:58:06.851Z,45.82
2022-10-25T11:00:34.930Z,46.65
2022-10-25T11:03:02.924Z,47.71
2022-10-25T11:05:35.022Z,47.73
2022-10-25T11:10:32.843Z,48.08
2022-10-25T11:13:10.304Z,47.96
2022-10-25T11:15:51.941Z,48.59
2022-10-25T11:18:43.402Z,48.78
2022-10-25T11:21:38.121Z,48.10
2022-10-25T11:24:26.824Z,47.41
2022-10-25T11:27:12.574Z,47.44
2022-10-25T11:29:57.588Z,47.08
2022-10-25T11:32:51.213Z,47.45
2022-10-25T11:35:33.484Z,46.62
2022-10-25T11:38:30.007Z,45.71
2022-10-25T11:41:15.095Z,44.13
2022-10-25T11:43:47.764Z,43.67
2022-10-25T11:46:45.183Z,44.73
2022-10-25T11:49:46.993Z,46.42
2022-10-25T11:52:44.345Z,45.89
2022-10-25T11:55:32.879Z,46.41
2022-10-25T11:58:25.638Z,46.61
2022-10-25T12:00:55.358Z,46.37
2022-10-25T12:03:24.887Z,46.94
2022-10-25T12:06:22.732Z,47.15
2022-10-25T12:09:13.093Z,47.33
2022-10-25T12:11:46.788Z,47.04
2022-10-25T12:14:18.636Z,46.32
2022-10-25T12:16:46.083Z,46.73
2022-10-25T12:19:28.181Z,46.63
2022-10-25T12:22:01.592Z,47.56
2022-10-25T12:24:39.172Z,48.76
2022-10-25T12:27:08.611Z,48.49
2022-10-25T12:29:46.036Z,48.49
2022-10-25T12:32:21.612Z,47.46
2022-10-25T12:34:51.117Z,44.77
2022-10-25T12:37:32.283Z,44.80
2022-10-25T12:39:59.292Z,46.71
2022-10-25T12:42:43.771Z,48.49
2022-10-25T12:45:31.775Z,49.58
2022-10-25T12:48:20.720Z,48.51
2022-10-25T12:51:19.083Z,49.22
2022-10-25T12:54:08.109Z,49.55
2022-10-25T12:56:53.625Z,49.17
2022-10-25T12:59:38.961Z,48.83
2022-10-25T13:02:33.575Z,49.27
2022-10-25T13:05:24.951Z,48.80
2022-10-25T13:07:54.581Z,48.16
2022-10-25T13:10:23.991Z,48.15
2022-10-25T13:12:59.825Z,47.85
2022-10-25T13:15:33.511Z,49.11
2022-10-25T13:18:06.250Z,48.78
2022-10-25T13:20:39.063Z,48.68
2022-10-25T13:23:42.607Z,47.94
2022-10-25T13:26:15.284Z,48.24
2022-10-25T13:28:52.977Z,47.86
2022-10-25T13:31:34.955Z,47.19
2022-10-25T13:34:13.812Z,46.24
2022-10-25T13:36:57.505Z,45.94
2022-10-25T13:39:31.949Z,45.79
2022-10-25T13:42:10.691Z,45.68
2022-10-25T13:44:48.760Z,45.24
2022-10-25T13:47:44.348Z,45.35
2022-10-25T13:50:20.058Z,45.48
2022-10-25T13:53:03.175Z,45.56
2022-10-25T13:55:35.356Z,45.86
2022-10-25T13:58:22.120Z,45.38
2022-10-25T14:00:52.952Z,45.00
2022-10-25T14:03:21.243Z,45.32
2022-10-25T14:05:56.398Z,46.23
2022-10-25T14:08:37.990Z,46.86
2022-10-25T14:11:20.493Z,46.55
2022-10-25T14:14:11.371Z,47.51
2022-10-25T14:16:45.627Z,47.14
2022-10-25T14:19:18.414Z,46.91
2022-10-25T14:21:51.158Z,47.31
2022-10-25T14:24:19.552Z,47.27
2022-10-25T14:26:59.491Z,47.00
2022-10-25T14:29:28.914Z,47.44
2022-10-25T14:31:56.792Z,47.93
2022-10-25T14:34:26.070Z,48.46
2022-10-25T14:36:57.736Z,48.29
2022-10-25T14:39:28.026Z,48.35
2022-10-25T14:42:00.549Z,48.27
2022-10-25T14:44:30.207Z,48.52
2022-10-25T14:46:58.050Z,47.32
2022-10-25T14:49:26.136Z,47.68
2022-10-25T14:52:00.733Z,47.92
2022-10-25T14:54:38.215Z,48.02
2022-10-25T14:57:08.328Z,48.71
2022-10-25T14:59:48.106Z,48.32
2022-10-25T15:02:41.166Z,48.71
2022-10-25T15:05:17.300Z,48.78
2022-10-25T15:07:46.954Z,49.15
2022-10-25T15:10:32.178Z,49.12
2022-10-25T15:13:04.012Z,49.70
2022-10-25T15:15:42.202Z,49.66
2022-10-25T15:18:32.637Z,49.81
2022-10-25T15:21:17.683Z,50.60
2022-10-25T15:24:08.581Z,50.86
2022-10-25T15:26:38.176Z,51.43
2022-10-25T15:29:06.193Z,51.88
2022-10-25T15:31:32.958Z,52.13
2022-10-25T15:34:05.297Z,52.10
2022-10-25T15:36:33.370Z,52.69
2022-10-25T15:39:11.441Z,52.91
2022-10-25T15:41:40.985Z,53.21
2022-10-25T15:44:07.563Z,53.43
2022-10-25T15:46:34.977Z,53.31
2022-10-25T15:49:05.188Z,53.78
2022-10-25T15:51:39.458Z,53.87
2022-10-25T15:54:14.643Z,54.22
2022-10-25T15:56:41.650Z,54.77
2022-10-25T15:59:08.291Z,54.83
2022-10-25T16:01:34.994Z,55.00
2022-10-25T16:04:01.709Z,54.77
2022-10-25T16:06:28.369Z,54.88
2022-10-25T16:08:54.927Z,55.05
2022-10-25T16:11:21.672Z,55.24
2022-10-25T16:13:51.668Z,55.32
2022-10-25T16:16:39.928Z,55.76
2022-10-25T16:19:14.759Z,56.13
2022-10-25T16:21:41.425Z,56.45
2022-10-25T16:24:08.354Z,56.98
2022-10-25T16:26:46.732Z,57.55
2022-10-25T16:29:18.732Z,57.54
2022-10-25T16:31:45.583Z,57.33
2022-10-25T16:34:12.827Z,57.51
2022-10-25T16:36:39.461Z,57.68
2022-10-25T16:39:07.639Z,57.37
2022-10-25T16:41:38.461Z,57.68
2022-10-25T16:44:05.680Z,57.64
2022-10-25T16:46:32.310Z,57.77
2022-10-25T16:49:01.838Z,57.80
2022-10-25T16:51:29.037Z,57.72
2022-10-25T16:53:57.220Z,57.81
2022-10-25T16:56:24.249Z,58.43
2022-10-25T16:58:50.918Z,58.45
2022-10-25T17:01:23.010Z,58.62
2022-10-25T17:03:50.921Z,58.68
2022-10-25T17:09:05.967Z,59.36
2022-10-25T17:11:32.737Z,58.92
2022-10-25T17:13:59.490Z,59.05
2022-10-25T17:16:26.149Z,59.25
2022-10-25T17:18:52.929Z,59.58
2022-10-25T17:21:20.184Z,59.56
2022-10-25T17:23:46.869Z,59.95
2022-10-25T17:26:14.234Z,59.82
2022-10-25T17:28:44.029Z,59.63
2022-10-25T17:31:13.044Z,60.00
2022-10-25T17:33:40.663Z,59.76
2022-10-25T17:36:18.220Z,60.02
2022-10-25T17:38:45.279Z,60.29
2022-10-25T17:41:13.338Z,59.93
2022-10-25T17:43:41.858Z,60.53
2022-10-25T17:46:23.472Z,60.53
2022-10-25T17:48:55.088Z,61.15
2022-10-25T17:51:23.214Z,61.39
2022-10-25T17:53:56.462Z,60.98
2022-10-25T17:56:25.578Z,60.99
2022-10-25T17:58:53.613Z,61.43
2022-10-25T18:01:23.188Z,61.42
2022-10-25T18:03:50.032Z,61.50
2022-10-25T18:06:20.151Z,61.71
2022-10-25T18:08:51.762Z,62.19
2022-10-25T18:11:22.172Z,62.36
2022-10-25T18:13:50.626Z,62.61
2022-10-25T18:16:17.902Z,62.75
2022-10-25T18:18:44.501Z,62.75
2022-10-25T18:21:13.763Z,62.78
2022-10-25T18:23:41.584Z,62.83
2022-10-25T18:26:10.983Z,62.82
2022-10-25T18:28:38.437Z,62.92
2022-10-25T18:31:10.034Z,63.30
2022-10-25T18:33:38.637Z,62.97
2022-10-25T18:36:12.268Z,63.20
2022-10-25T18:38:39.001Z,62.94
2022-10-25T18:41:08.051Z,63.23
2022-10-25T18:43:35.637Z,63.14
2022-10-25T18:46:02.273Z,62.75
2022-10-25T18:48:29.284Z,62.89
2022-10-25T18:50:56.081Z,63.39
2022-10-25T18:53:22.902Z,62.88
2022-10-25T18:55:53.339Z,62.68
2022-10-25T18:58:19.946Z,62.95
2022-10-25T19:00:47.009Z,62.80
2022-10-25T19:03:15.733Z,62.99
2022-10-25T19:05:43.119Z,62.73
2022-10-25T19:08:11.189Z,63.30
2022-10-25T19:10:39.295Z,62.89
2022-10-25T19:13:06.703Z,62.40
2022-10-25T19:15:33.840Z,62.88
2022-10-25T19:18:00.850Z,62.91
2022-10-25T19:20:27.466Z,62.65
2022-10-25T19:22:58.414Z,62.73
2022-10-25T19:25:29.712Z,62.68
2022-10-25T19:27:56.892Z,62.72
2022-10-25T19:30:24.546Z,62.52
2022-10-25T19:32:51.340Z,62.62
2022-10-25T19:35:18.752Z,62.65
2022-10-25T19:37:45.579Z,62.63
2022-10-25T19:40:12.655Z,62.56
2022-10-25T19:42:39.550Z,62.88
2022-10-25T19:45:06.609Z,63.09
2022-10-25T19:47:35.726Z,63.05
2022-10-25T19:50:05.451Z,63.65
2022-10-25T19:52:35.526Z,63.33
2022-10-25T19:57:29.179Z,63.47
2022-10-25T19:59:55.813Z,63.26
2022-10-25T20:02:22.824Z,62.91
2022-10-25T20:04:49.758Z,62.84
2022-10-25T20:07:16.858Z,62.84
2022-10-25T20:09:43.936Z,63.33
2022-10-25T20:12:10.777Z,62.82
2022-10-25T20:14:37.732Z,62.85
2022-10-25T20:17:07.464Z,63.10
2022-10-25T20:19:33.962Z,63.07
2022-10-25T20:22:00.606Z,63.24
2022-10-25T20:24:28.516Z,63.16
2022-10-25T20:26:55.229Z,63.15
2022-10-25T20:29:24.036Z,62.86
2022-10-25T20:31:51.827Z,62.84
2022-10-25T20:34:19.821Z,63.05
2022-10-25T20:36:47.890Z,62.67
2022-10-25T20:39:15.296Z,62.82
2022-10-25T20:41:42.157Z,63.23
2022-10-25T20:44:09.288Z,63.44
2022-10-25T20:46:36.101Z,63.46
2022-10-25T20:49:04.883Z,63.72
2022-10-25T20:51:31.584Z,63.73
2022-10-25T20:53:58.201Z,63.77
2022-10-25T20:56:25.480Z,64.06
2022-10-25T20:58:53.733Z,64.40
2022-10-25T21:01:20.479Z,64.46
2022-10-25T21:03:47.289Z,64.21
2022-10-25T21:06:14.429Z,64.25
2022-10-25T21:08:41.566Z,64.55
2022-10-25T21:11:12.385Z,64.35
2022-10-25T21:13:39.646Z,64.57
2022-10-25T21:16:08.876Z,64.74
2022-10-25T21:18:37.133Z,64.54
2022-10-25T21:21:07.133Z,64.49
2022-10-25T21:23:34.156Z,64.32
2022-10-25T21:26:03.153Z,64.12
2022-10-25T21:28:35.240Z,64.43
2022-10-25T21:31:06.697Z,64.50
2022-10-25T21:33:33.523Z,64.79
2022-10-25T21:36:11.007Z,64.63
2022-10-25T21:38:38.149Z,64.73
2022-10-25T21:41:05.806Z,64.75
2022-10-25T21:43:32.622Z,64.59
2022-10-25T21:45:59.302Z,64.38
2022-10-25T21:48:25.988Z,64.04
2022-10-25T21:50:55.895Z,64.25
2022-10-25T21:53:22.517Z,64.00
2022-10-25T21:55:49.213Z,63.99
2022-10-25T21:58:15.903Z,63.97
2022-10-25T22:00:43.297Z,63.81
2022-10-25T22:03:09.920Z,64.12
2022-10-25T22:05:42.994Z,64.16
2022-10-25T22:08:09.601Z,64.22
2022-10-25T22:10:36.368Z,64.17
2022-10-25T22:13:02.975Z,64.37
2022-10-25T22:15:29.647Z,64.24
2022-10-25T22:17:56.299Z,64.35
2022-10-25T22:20:22.800Z,64.34
2022-10-25T22:22:49.582Z,64.63
2022-10-25T22:25:16.400Z,64.11
2022-10-25T22:30:11.075Z,63.84
2022-10-25T22:32:37.707Z,64.35
2022-10-25T22:35:04.420Z,64.26
2022-10-25T22:37:30.988Z,64.40
2022-10-25T22:39:57.562Z,64.14
2022-10-25T22:42:25.437Z,64.07
2022-10-25T22:44:51.997Z,64.17
2022-10-25T22:47:18.624Z,64.19
2022-10-25T22:49:45.256Z,64.38
2022-10-25T22:52:13.674Z,64.13
2022-10-25T22:54:40.303Z,64.27
2022-10-25T22:57:06.944Z,64.38
2022-10-25T22:59:33.567Z,63.96
2022-10-25T23:02:00.116Z,63.92
2022-10-25T23:04:26.745Z,63.74
2022-10-25T23:06:53.409Z,64.06
2022-10-25T23:09:19.985Z,64.00
2022-10-25T23:11:46.633Z,63.24
2022-10-25T23:14:16.567Z,63.94
2022-10-25T23:16:45.348Z,63.62
2022-10-25T23:19:11.930Z,63.81
2022-10-25T23:21:38.789Z,63.97
2022-10-25T23:24:05.849Z,64.11
2022-10-25T23:26:34.706Z,64.13
2022-10-25T23:29:01.454Z,64.37
2022-10-25T23:31:28.940Z,64.51
2022-10-25T23:33:57.471Z,64.42
2022-10-25T23:36:27.001Z,64.61
2022-10-25T23:38:55.502Z,64.72
2022-10-25T23:41:22.810Z,65.19
2022-10-25T23:43:49.889Z,65.26
2022-10-25T23:46:16.541Z,65.08
2022-10-25T23:48:43.175Z,65.45
2022-10-25T23:51:13.210Z,65.39
2022-10-25T23:53:40.294Z,66.02
2022-10-25T23:56:10.141Z,66.21
2022-10-25T23:58:37.862Z,66.10
